Time;durP1;ratioP1;P1;durP2;ratioP2;P2;SDS_P1;SDS_P2;PMS_P1;PMS_P2;Temp;Humidity;BMP_temperature;BMP_pressure;BME280_temperature;BME280_humidity;BME280_pressure;Samples;Min_cycle;Max_cycle;Signal;HPM_P1;HPM_P2
2021/09/23 00:01:11;;;;;;;8.60;7.10;;;14.70;79.50;;;;;;5093788;28;20173;-76
2021/09/23 00:06:03;;;;;;;9.07;7.07;;;14.40;83.50;;;;;;5093282;28;20232;-80
2021/09/23 00:08:28;;;;;;;11.67;7.47;;;14.30;87.00;;;;;;5092368;28;20173;-80
2021/09/23 00:10:54;;;;;;;9.70;7.10;;;14.20;89.10;;;;;;5093339;28;20173;-81
2021/09/23 00:13:20;;;;;;;10.33;7.30;;;14.30;89.20;;;;;;5093453;28;20168;-80
2021/09/23 00:15:46;;;;;;;9.60;7.30;;;14.30;88.60;;;;;;5093428;28;20172;-81
2021/09/23 00:18:17;;;;;;;12.20;7.83;;;14.30;88.90;;;;;;5093282;28;20168;-80
2021/09/23 00:20:45;;;;;;;12.57;7.80;;;14.40;88.30;;;;;;5094012;28;20181;-81
2021/09/23 00:23:11;;;;;;;10.27;7.00;;;14.50;86.40;;;;;;5093665;28;20670;-81
2021/09/23 00:25:37;;;;;;;9.33;7.20;;;14.40;86.00;;;;;;5093442;28;20234;-81
2021/09/23 00:28:05;;;;;;;10.53;7.33;;;14.30;86.70;;;;;;5093510;28;20523;-81
2021/09/23 00:30:31;;;;;;;9.70;7.00;;;14.20;87.20;;;;;;5093369;28;20170;-80
2021/09/23 00:32:57;;;;;;;14.13;7.40;;;14.20;88.20;;;;;;5093105;28;20175;-80
2021/09/23 00:35:23;;;;;;;11.13;7.30;;;14.10;88.80;;;;;;5093234;28;20261;-81
2021/09/23 00:37:50;;;;;;;8.23;7.37;;;14.10;88.80;;;;;;5093561;28;20176;-81
2021/09/23 00:40:17;;;;;;;8.57;6.87;;;14.00;88.50;;;;;;5110013;28;20506;-79
2021/09/23 00:42:47;;;;;;;12.00;7.23;;;13.90;90.00;;;;;;5095220;28;20172;-80
2021/09/23 00:45:14;;;;;;;9.50;7.30;;;13.80;90.90;;;;;;5096485;28;20202;-80
2021/09/23 00:47:40;;;;;;;12.50;7.83;;;13.70;91.50;;;;;;5104816;28;20171;-81
2021/09/23 00:50:07;;;;;;;13.67;8.27;;;13.80;91.60;;;;;;5105523;28;20179;-83
2021/09/23 00:52:37;;;;;;;14.10;8.13;;;14.00;89.40;;;;;;5114431;28;20153;-81
2021/09/23 00:55:06;;;;;;;13.30;8.30;;;14.10;86.50;;;;;;5117916;28;20222;-80
2021/09/23 00:57:31;;;;;;;12.70;9.33;;;14.20;81.70;;;;;;5117707;28;20179;-80
2021/09/23 00:59:58;;;;;;;9.80;8.60;;;14.20;78.90;;;;;;5119966;28;20171;-80
2021/09/23 01:02:24;;;;;;;10.27;7.83;;;14.30;77.10;;;;;;5116033;28;20187;-79
2021/09/23 01:04:56;;;;;;;11.50;7.93;;;14.10;77.90;;;;;;5111819;28;20188;-80
2021/09/23 01:07:24;;;;;;;11.53;7.90;;;13.90;84.30;;;;;;5113933;28;20180;-78
2021/09/23 01:09:54;;;;;;;10.23;7.90;;;13.80;88.10;;;;;;5118232;28;20163;-80
2021/09/23 01:12:24;;;;;;;9.70;7.40;;;13.70;89.70;;;;;;5116175;28;20148;-80
2021/09/23 01:14:51;;;;;;;9.07;7.70;;;13.70;90.50;;;;;;5102179;28;20248;-80
2021/09/23 01:17:27;;;;;;;11.00;7.83;;;13.60;90.90;;;;;;5099194;28;20152;-81
2021/09/23 01:19:53;;;;;;;11.97;8.30;;;13.70;91.20;;;;;;5097013;28;20180;-81
2021/09/23 01:22:19;;;;;;;10.77;7.57;;;13.60;90.90;;;;;;5096731;28;20217;-81
2021/09/23 01:24:45;;;;;;;10.43;7.50;;;13.60;90.80;;;;;;5095205;28;20584;-81
2021/09/23 01:27:12;;;;;;;10.73;7.27;;;13.60;90.80;;;;;;5096676;28;20564;-82
2021/09/23 01:29:39;;;;;;;8.60;7.40;;;13.60;91.10;;;;;;5112421;28;20499;-81
2021/09/23 01:32:06;;;;;;;12.23;7.43;;;13.50;91.00;;;;;;5096514;28;20167;-81
2021/09/23 01:34:33;;;;;;;8.70;7.37;;;13.40;91.10;;;;;;5098150;28;20298;-81
2021/09/23 01:36:59;;;;;;;10.30;7.57;;;13.30;92.00;;;;;;5116133;28;20201;-79
2021/09/23 01:39:27;;;;;;;9.60;8.10;;;13.30;92.50;;;;;;5114514;28;20175;-81
2021/09/23 01:41:54;;;;;;;11.17;7.37;;;13.30;92.50;;;;;;5109932;28;20536;-81
2021/09/23 01:44:20;;;;;;;10.77;8.07;;;13.20;92.70;;;;;;5096506;28;20179;-82
2021/09/23 01:46:46;;;;;;;9.27;7.87;;;13.20;93.00;;;;;;5096219;28;20681;-81
2021/09/23 01:49:11;;;;;;;8.97;8.07;;;13.20;93.00;;;;;;5096250;28;20163;-80
2021/09/23 01:51:39;;;;;;;11.90;8.10;;;13.20;92.90;;;;;;5096556;28;20159;-80
2021/09/23 01:54:05;;;;;;;11.13;8.60;;;13.20;92.80;;;;;;5097880;28;20237;-81
2021/09/23 01:56:31;;;;;;;11.40;8.47;;;13.40;92.50;;;;;;5098295;28;20176;-81
2021/09/23 01:58:57;;;;;;;10.63;8.73;;;13.30;91.90;;;;;;5116793;28;20179;-81
2021/09/23 02:01:23;;;;;;;12.97;8.47;;;13.30;92.00;;;;;;5115798;28;20203;-80
2021/09/23 02:03:49;;;;;;;11.10;7.90;;;13.40;91.70;;;;;;5119629;28;20159;-80
2021/09/23 02:06:15;;;;;;;13.57;8.37;;;13.40;91.70;;;;;;5118409;28;20171;-79
2021/09/23 02:08:43;;;;;;;9.33;8.40;;;13.50;91.60;;;;;;5110457;28;20182;-80
2021/09/23 02:11:12;;;;;;;8.50;7.50;;;13.50;91.10;;;;;;5108201;28;20172;-80
2021/09/23 02:13:53;;;;;;;11.23;8.57;;;13.50;90.70;;;;;;5100077;28;20603;-80
2021/09/23 02:16:21;;;;;;;10.33;8.57;;;13.60;90.80;;;;;;5096032;28;20179;-79
2021/09/23 02:18:48;;;;;;;14.00;8.33;;;13.40;90.80;;;;;;5094700;28;20168;-81
2021/09/23 02:21:14;;;;;;;11.37;8.43;;;13.30;91.30;;;;;;5095711;28;20179;-80
2021/09/23 02:23:40;;;;;;;10.13;7.77;;;13.30;91.40;;;;;;5094071;28;20175;-81
2021/09/23 02:26:05;;;;;;;11.03;8.30;;;13.50;91.50;;;;;;5095528;28;20653;-81
2021/09/23 02:28:35;;;;;;;9.13;8.10;;;13.30;91.50;;;;;;5095073;28;20172;-81
2021/09/23 02:31:00;;;;;;;10.57;8.50;;;13.40;91.70;;;;;;5111254;28;20258;-82
2021/09/23 02:33:26;;;;;;;10.03;7.90;;;13.50;90.50;;;;;;5094634;28;20260;-81
2021/09/23 02:35:52;;;;;;;12.40;9.30;;;13.50;89.40;;;;;;5095630;28;20179;-80
2021/09/23 02:38:18;;;;;;;13.77;8.73;;;13.50;89.30;;;;;;5098134;28;20164;-81
2021/09/23 02:40:46;;;;;;;12.47;8.50;;;13.50;89.60;;;;;;5097772;28;20168;-81
2021/09/23 02:43:13;;;;;;;11.80;8.53;;;13.40;89.70;;;;;;5096168;28;20176;-82
2021/09/23 02:45:38;;;;;;;11.43;9.17;;;13.50;89.50;;;;;;5095262;28;20239;-82
2021/09/23 02:48:04;;;;;;;10.17;8.77;;;13.60;88.20;;;;;;5095190;28;20206;-80
2021/09/23 02:50:30;;;;;;;12.40;8.93;;;13.60;84.60;;;;;;5095231;28;20615;-80
2021/09/23 02:52:56;;;;;;;9.20;8.13;;;13.50;84.50;;;;;;5095463;28;20175;-81
2021/09/23 02:55:21;;;;;;;13.03;8.90;;;13.50;83.30;;;;;;5094691;28;20212;-80
2021/09/23 02:57:47;;;;;;;13.03;8.93;;;13.50;85.30;;;;;;5094867;28;20168;-80
2021/09/23 03:00:13;;;;;;;11.60;9.03;;;13.40;86.20;;;;;;5095116;28;20194;-81
2021/09/23 03:02:39;;;;;;;11.00;8.77;;;13.30;87.50;;;;;;5095319;28;20691;-81
2021/09/23 03:05:05;;;;;;;9.63;8.50;;;13.30;89.90;;;;;;5094287;28;20195;-83
2021/09/23 03:07:31;;;;;;;12.30;9.43;;;13.30;89.20;;;;;;5094690;28;20286;-80
2021/09/23 03:09:56;;;;;;;11.40;8.73;;;13.30;89.90;;;;;;5094568;28;20203;-79
2021/09/23 03:12:22;;;;;;;9.97;8.40;;;13.40;89.20;;;;;;5094510;28;20168;-81
2021/09/23 03:14:48;;;;;;;11.23;8.47;;;13.30;89.00;;;;;;5094521;28;20211;-78
2021/09/23 03:17:13;;;;;;;11.27;8.30;;;13.20;89.30;;;;;;5094537;28;20168;-82
2021/09/23 03:19:39;;;;;;;13.93;9.27;;;13.10;90.00;;;;;;5094299;28;20540;-82
2021/09/23 03:22:05;;;;;;;10.20;8.93;;;13.10;90.60;;;;;;5094573;28;20171;-81
2021/09/23 03:24:31;;;;;;;13.17;9.33;;;12.90;91.30;;;;;;5094224;28;20533;-80
2021/09/23 03:26:57;;;;;;;13.00;9.40;;;13.00;91.40;;;;;;5094598;28;20250;-80
2021/09/23 03:29:23;;;;;;;12.40;9.17;;;13.00;91.00;;;;;;5094475;28;20175;-80
2021/09/23 03:31:48;;;;;;;14.00;8.93;;;13.00;90.80;;;;;;5094278;28;20178;-80
2021/09/23 03:34:14;;;;;;;11.90;8.73;;;12.80;91.80;;;;;;5093871;28;20195;-82
2021/09/23 03:36:40;;;;;;;16.30;9.77;;;12.70;92.60;;;;;;5110515;28;20179;-81
2021/09/23 03:39:06;;;;;;;13.93;10.00;;;12.70;93.30;;;;;;5095074;28;20171;-80
2021/09/23 03:41:32;;;;;;;15.73;10.37;;;12.60;93.30;;;;;;5112313;28;20155;-81
2021/09/23 03:43:58;;;;;;;13.30;9.80;;;12.60;93.60;;;;;;5116258;28;20179;-79
2021/09/23 03:46:24;;;;;;;13.10;9.90;;;12.70;93.50;;;;;;5112233;28;20209;-79
2021/09/23 03:48:55;;;;;;;14.73;10.03;;;12.80;92.70;;;;;;5098204;28;20156;-81
2021/09/23 03:51:21;;;;;;;14.40;10.20;;;12.80;92.30;;;;;;5094182;28;20151;-81
2021/09/23 03:53:48;;;;;;;12.17;9.87;;;12.70;92.50;;;;;;5092835;28;20256;-81
2021/09/23 03:56:14;;;;;;;13.00;10.10;;;12.50;93.50;;;;;;5093775;28;20176;-79
2021/09/23 03:58:41;;;;;;;14.93;9.80;;;12.60;94.30;;;;;;5093442;28;20581;-81
2021/09/23 04:01:07;;;;;;;15.27;10.43;;;12.40;94.60;;;;;;5112197;28;20214;-78
2021/09/23 04:03:32;;;;;;;13.80;10.23;;;12.40;94.70;;;;;;5116209;28;20151;-79
2021/09/23 04:05:58;;;;;;;16.23;9.80;;;12.30;94.90;;;;;;5113468;28;20192;-78
2021/09/23 04:08:27;;;;;;;14.13;9.93;;;12.40;95.50;;;;;;5102693;28;20171;-81
2021/09/23 04:10:52;;;;;;;12.13;9.23;;;12.50;95.10;;;;;;5093628;28;20175;-81
2021/09/23 04:13:18;;;;;;;14.23;10.13;;;12.60;94.30;;;;;;5093670;28;20228;-81
2021/09/23 04:15:45;;;;;;;13.80;9.57;;;12.50;94.30;;;;;;5097042;28;20214;-79
2021/09/23 04:18:15;;;;;;;13.83;10.27;;;12.50;94.50;;;;;;5100753;28;20160;-76
2021/09/23 04:20:43;;;;;;;11.97;9.43;;;12.40;95.00;;;;;;5097296;28;20175;-80
2021/09/23 04:23:09;;;;;;;12.63;9.83;;;12.50;95.20;;;;;;5103409;28;20230;-81
2021/09/23 04:25:35;;;;;;;15.30;11.30;;;12.60;95.20;;;;;;5112725;28;20176;-81
2021/09/23 04:28:00;;;;;;;15.63;11.53;;;12.80;93.70;;;;;;5114592;28;20155;-78
2021/09/23 04:30:26;;;;;;;14.43;10.80;;;13.00;90.90;;;;;;5116744;28;20176;-77
2021/09/23 04:32:52;;;;;;;15.13;10.87;;;13.20;88.40;;;;;;5099753;28;20159;-81
2021/09/23 04:35:18;;;;;;;12.50;10.80;;;12.90;89.00;;;;;;5098854;28;20198;-80
2021/09/23 04:37:49;;;;;;;14.30;9.83;;;12.70;91.10;;;;;;5098327;28;20173;-81
2021/09/23 04:40:15;;;;;;;14.97;10.20;;;12.60;92.50;;;;;;5097494;28;20179;-80
2021/09/23 04:42:42;;;;;;;17.13;11.00;;;12.70;92.80;;;;;;5096955;28;20634;-82
2021/09/23 04:45:08;;;;;;;14.57;10.50;;;13.00;91.50;;;;;;5097679;28;20189;-79
2021/09/23 04:47:34;;;;;;;13.57;11.30;;;13.00;90.00;;;;;;5099273;28;20152;-79
2021/09/23 04:50:00;;;;;;;15.60;11.40;;;12.80;90.00;;;;;;5096435;28;20661;-82
2021/09/23 04:52:26;;;;;;;13.77;10.03;;;12.90;90.70;;;;;;5096500;28;20172;-80
2021/09/23 04:54:52;;;;;;;13.37;10.67;;;12.60;91.70;;;;;;5096173;28;20213;-82
2021/09/23 04:57:18;;;;;;;16.27;11.20;;;12.60;92.10;;;;;;5098038;28;20246;-81
2021/09/23 04:59:43;;;;;;;13.63;10.10;;;12.60;92.50;;;;;;5114666;28;20171;-77
2021/09/23 05:02:09;;;;;;;14.70;10.97;;;12.60;92.60;;;;;;5113726;28;20176;-77
2021/09/23 05:04:35;;;;;;;16.70;11.53;;;12.70;92.40;;;;;;5109485;28;20282;-79
2021/09/23 05:07:03;;;;;;;19.17;11.63;;;12.70;91.40;;;;;;5069834;28;1078796;-79
2021/09/23 05:09:30;;;;;;;13.83;11.13;;;12.80;91.10;;;;;;5102122;28;20686;-80
2021/09/23 05:11:57;;;;;;;15.67;11.50;;;12.80;90.70;;;;;;5098439;28;20626;-82
2021/09/23 05:14:29;;;;;;;16.13;11.40;;;12.90;90.40;;;;;;5097826;28;20192;-82
2021/09/23 05:16:54;;;;;;;17.60;11.97;;;13.00;89.10;;;;;;5097811;28;20152;-81
2021/09/23 05:19:20;;;;;;;16.83;12.27;;;13.20;85.30;;;;;;5097343;28;20205;-79
2021/09/23 05:21:46;;;;;;;20.93;12.40;;;13.00;85.70;;;;;;5097068;28;20170;-82
2021/09/23 05:24:16;;;;;;;17.23;13.57;;;13.00;86.10;;;;;;5097947;28;20532;-78
2021/09/23 05:26:42;;;;;;;20.67;14.20;;;12.90;86.30;;;;;;5108172;28;20179;-78
2021/09/23 05:29:08;;;;;;;17.67;12.93;;;12.80;87.80;;;;;;5106161;28;20178;-80
2021/09/23 05:31:35;;;;;;;17.93;12.70;;;12.80;88.70;;;;;;5097029;28;20567;-81
2021/09/23 05:34:03;;;;;;;16.53;12.77;;;13.00;88.40;;;;;;5096826;28;20655;-81
2021/09/23 05:36:29;;;;;;;17.37;12.50;;;12.80;88.10;;;;;;5096625;28;20164;-81
2021/09/23 05:38:59;;;;;;;19.20;12.53;;;12.70;88.20;;;;;;5097431;28;20208;-80
2021/09/23 05:41:25;;;;;;;20.80;13.73;;;12.60;89.80;;;;;;5094775;28;20175;-78
2021/09/23 05:43:51;;;;;;;17.30;13.23;;;12.50;90.90;;;;;;5096457;28;20183;-80
2021/09/23 05:46:17;;;;;;;17.83;13.23;;;12.50;91.50;;;;;;5097075;28;20395;-80
2021/09/23 05:48:42;;;;;;;17.77;12.73;;;12.40;92.40;;;;;;5095699;28;20279;-82
2021/09/23 05:51:08;;;;;;;19.40;14.33;;;12.30;93.10;;;;;;5096413;28;20160;-77
2021/09/23 05:53:34;;;;;;;23.57;13.57;;;12.30;93.20;;;;;;5094646;28;20171;-78
2021/09/23 05:55:59;;;;;;;20.93;13.37;;;12.30;93.40;;;;;;5095669;28;20194;-79
2021/09/23 05:58:25;;;;;;;18.50;14.00;;;12.30;93.80;;;;;;5095951;28;20171;-78
2021/09/23 06:00:51;;;;;;;19.83;14.30;;;12.60;92.80;;;;;;5096025;28;20224;-80
2021/09/23 06:03:16;;;;;;;18.57;13.57;;;12.50;91.80;;;;;;5096585;28;20187;-76
2021/09/23 06:05:42;;;;;;;21.40;13.83;;;12.40;91.80;;;;;;5096179;28;20530;-77
2021/09/23 06:08:19;;;;;;;20.03;13.97;;;12.40;92.30;;;;;;5098759;28;20183;-79
2021/09/23 06:11:00;;;;;;;22.53;13.37;;;12.40;92.40;;;;;;5098653;28;20163;-79
2021/09/23 06:13:35;;;;;;;23.60;14.17;;;12.60;92.00;;;;;;5096444;28;20175;-80
2021/09/23 06:16:00;;;;;;;23.73;14.77;;;12.60;91.50;;;;;;5095746;28;20167;-76
2021/09/23 06:18:28;;;;;;;22.00;14.13;;;12.80;90.50;;;;;;5095894;28;20576;-76
2021/09/23 06:20:54;;;;;;;24.40;15.07;;;12.80;89.80;;;;;;5096104;28;20171;-79
2021/09/23 06:23:19;;;;;;;24.10;14.70;;;12.80;90.20;;;;;;5095845;28;20218;-81
2021/09/23 06:25:45;;;;;;;27.27;14.07;;;12.80;90.30;;;;;;5096194;28;20372;-80
2021/09/23 06:28:11;;;;;;;27.50;15.00;;;12.80;90.90;;;;;;5095660;28;20180;-76
2021/09/23 06:30:38;;;;;;;25.90;14.43;;;12.80;91.20;;;;;;5113159;28;20152;-78
2021/09/23 06:33:04;;;;;;;24.37;14.07;;;12.90;90.80;;;;;;5113534;28;20539;-78
2021/09/23 06:35:30;;;;;;;30.77;14.63;;;13.10;88.60;;;;;;5093138;28;20203;-76
2021/09/23 06:37:55;;;;;;;26.67;14.97;;;13.20;87.10;;;;;;5095236;28;20190;-76
2021/09/23 06:40:21;;;;;;;24.63;15.73;;;13.20;86.20;;;;;;5095123;28;20194;-76
2021/09/23 06:42:48;;;;;;;31.40;14.60;;;13.20;84.90;;;;;;5094769;28;20175;-77
2021/09/23 06:45:14;;;;;;;25.93;14.60;;;13.30;82.80;;;;;;5096267;28;20171;-76
2021/09/23 06:47:40;;;;;;;24.13;15.40;;;13.40;80.10;;;;;;5097487;28;20260;-78
2021/09/23 06:50:07;;;;;;;21.57;14.67;;;13.40;79.60;;;;;;5110198;28;20164;-75
2021/09/23 06:52:33;;;;;;;19.67;14.83;;;13.50;74.00;;;;;;5101551;28;20635;-78
2021/09/23 06:55:00;;;;;;;22.90;15.30;;;13.60;68.90;;;;;;5097286;28;20206;-81
2021/09/23 06:57:25;;;;;;;21.40;15.27;;;13.70;67.00;;;;;;5099493;28;20174;-79
2021/09/23 06:59:51;;;;;;;23.60;15.87;;;13.70;69.40;;;;;;5109455;28;20155;-79
2021/09/23 07:02:17;;;;;;;22.33;14.70;;;13.70;72.10;;;;;;5107086;28;20236;-81
2021/09/23 07:04:42;;;;;;;23.30;15.30;;;13.70;73.20;;;;;;5103645;28;20195;-80
2021/09/23 07:07:10;;;;;;;22.83;14.50;;;13.70;72.20;;;;;;5099809;28;20316;-81
2021/09/23 07:09:36;;;;;;;23.97;15.70;;;13.80;71.20;;;;;;5104651;28;20213;-80
2021/09/23 07:12:02;;;;;;;26.13;16.00;;;13.80;71.80;;;;;;5112505;28;20167;-79
2021/09/23 07:14:28;;;;;;;30.23;16.00;;;14.00;70.60;;;;;;5104537;28;20199;-81
2021/09/23 07:16:55;;;;;;;25.23;16.67;;;14.10;70.10;;;;;;5101048;28;20244;-80
2021/09/23 07:19:21;;;;;;;24.07;18.50;;;14.10;65.90;;;;;;5097143;28;20578;-82
2021/09/23 07:21:47;;;;;;;25.53;18.27;;;14.10;68.00;;;;;;5098455;28;20191;-81
2021/09/23 07:24:13;;;;;;;21.77;16.93;;;14.10;69.90;;;;;;5096352;28;20224;-80
2021/09/23 07:26:40;;;;;;;24.97;18.00;;;14.10;71.00;;;;;;5095674;28;20242;-79
2021/09/23 07:29:07;;;;;;;25.13;17.87;;;14.30;71.80;;;;;;5094997;28;20259;-79
2021/09/23 07:31:32;;;;;;;24.30;17.80;;;14.30;71.90;;;;;;5095888;28;20182;-80
2021/09/23 07:33:58;;;;;;;27.50;19.07;;;14.20;72.80;;;;;;5094825;28;20184;-78
2021/09/23 07:36:24;;;;;;;23.40;18.63;;;14.30;74.80;;;;;;5094002;28;20650;-80
2021/09/23 07:38:49;;;;;;;23.27;18.73;;;14.50;71.50;;;;;;5094330;28;20631;-76
2021/09/23 07:41:15;;;;;;;27.53;18.90;;;14.70;70.20;;;;;;5095998;28;20502;-79
2021/09/23 07:43:41;;;;;;;25.37;18.60;;;14.80;71.20;;;;;;5098618;28;20193;-78
2021/09/23 07:46:06;;;;;;;27.80;19.60;;;14.90;69.80;;;;;;5095865;28;20175;-79
2021/09/23 07:48:32;;;;;;;29.63;20.53;;;15.00;69.80;;;;;;5098772;28;20164;-78
2021/09/23 07:50:58;;;;;;;22.37;19.77;;;15.10;69.30;;;;;;5097908;28;20179;-79
2021/09/23 07:53:25;;;;;;;25.77;19.80;;;15.20;68.90;;;;;;5100277;28;20163;-80
2021/09/23 07:55:52;;;;;;;26.30;20.83;;;15.40;65.00;;;;;;5100979;28;20232;-78
2021/09/23 07:58:18;;;;;;;23.77;19.23;;;15.40;67.00;;;;;;5099678;28;20228;-80
2021/09/23 08:00:44;;;;;;;27.97;20.40;;;15.50;66.30;;;;;;5096312;28;20175;-78
2021/09/23 08:03:09;;;;;;;28.33;21.00;;;15.50;69.60;;;;;;5095596;28;20202;-80
2021/09/23 08:05:35;;;;;;;29.97;21.13;;;15.50;70.60;;;;;;5095860;28;20646;-80
2021/09/23 08:08:04;;;;;;;25.57;20.37;;;15.50;72.60;;;;;;5095588;28;20181;-80
2021/09/23 08:10:30;;;;;;;30.83;20.40;;;15.60;72.10;;;;;;5093444;28;20175;-79
2021/09/23 08:12:55;;;;;;;26.23;21.03;;;15.60;73.20;;;;;;5095369;28;20181;-78
2021/09/23 08:15:21;;;;;;;28.10;22.43;;;15.70;72.40;;;;;;5096805;28;20213;-79
2021/09/23 08:17:47;;;;;;;29.17;22.27;;;15.90;72.40;;;;;;5096705;28;20182;-80
2021/09/23 08:20:13;;;;;;;29.13;21.53;;;16.10;69.30;;;;;;5098903;28;20171;-79
2021/09/23 08:22:39;;;;;;;30.27;22.77;;;16.00;71.90;;;;;;5094919;28;20658;-82
2021/09/23 08:25:06;;;;;;;26.37;21.40;;;16.20;71.20;;;;;;5093780;28;20184;-80
2021/09/23 08:27:32;;;;;;;25.83;21.93;;;16.40;68.80;;;;;;5095130;28;20176;-80
2021/09/23 08:29:58;;;;;;;31.03;24.43;;;16.50;67.60;;;;;;5095129;28;20359;-78
2021/09/23 08:32:24;;;;;;;31.33;23.10;;;16.60;64.30;;;;;;5094724;28;20703;-80
2021/09/23 08:34:51;;;;;;;26.13;23.17;;;16.60;62.70;;;;;;5092596;28;20211;-80
2021/09/23 08:37:16;;;;;;;27.33;22.93;;;16.70;65.40;;;;;;5094313;28;20163;-78
2021/09/23 08:39:42;;;;;;;27.90;22.67;;;16.70;66.50;;;;;;5106176;28;20219;-79
2021/09/23 08:42:08;;;;;;;31.10;23.83;;;16.90;65.00;;;;;;5115532;28;20164;-77
2021/09/23 08:44:35;;;;;;;31.63;23.93;;;16.80;64.80;;;;;;5103631;28;20517;-79
2021/09/23 08:47:01;;;;;;;27.17;22.87;;;16.90;64.50;;;;;;5097640;28;20210;-81
2021/09/23 08:49:30;;;;;;;27.77;22.83;;;17.10;61.90;;;;;;5096271;28;20273;-79
2021/09/23 08:51:56;;;;;;;28.33;22.30;;;17.20;60.70;;;;;;5098502;28;20168;-79
2021/09/23 08:54:22;;;;;;;28.50;23.67;;;17.50;57.30;;;;;;5102226;28;20234;-84
2021/09/23 08:56:48;;;;;;;30.77;23.27;;;17.50;55.00;;;;;;5098408;28;20171;-80
2021/09/23 08:59:15;;;;;;;30.10;23.33;;;17.40;57.80;;;;;;5104603;28;20502;-78
2021/09/23 09:01:50;;;;;;;33.37;24.17;;;17.50;57.40;;;;;;5111285;28;20679;-79
2021/09/23 09:04:16;;;;;;;28.00;24.00;;;17.60;57.50;;;;;;5104460;28;20188;-81
2021/09/23 09:06:59;;;;;;;28.50;24.27;;;17.70;56.40;;;;;;5110539;28;20187;-77
2021/09/23 09:09:30;;;;;;;29.67;25.27;;;17.60;56.20;;;;;;5116949;28;20160;-78
2021/09/23 09:11:56;;;;;;;29.60;24.53;;;17.80;55.70;;;;;;5109064;28;20179;-79
2021/09/23 09:14:29;;;;;;;31.10;25.00;;;17.90;54.40;;;;;;5096479;28;20203;-82
2021/09/23 09:17:06;;;;;;;31.30;26.40;;;18.00;49.20;;;;;;5096216;28;20171;-79
2021/09/23 09:20:06;;;;;;;28.23;25.17;;;17.90;50.30;;;;;;5098314;28;20172;-79
2021/09/23 09:22:34;;;;;;;29.70;25.43;;;17.80;54.00;;;;;;5112084;28;20232;-80
2021/09/23 09:25:05;;;;;;;25.40;22.60;;;17.70;57.90;;;;;;5115920;28;20183;-80
2021/09/23 09:27:37;;;;;;;29.77;25.50;;;17.80;57.10;;;;;;5098333;28;20183;-81
2021/09/23 09:30:11;;;;;;;26.03;21.77;;;17.90;55.50;;;;;;5099720;28;20209;-80
2021/09/23 09:32:46;;;;;;;23.13;20.77;;;18.10;52.40;;;;;;5097276;28;20209;-82
2021/09/23 09:35:15;;;;;;;25.53;18.60;;;17.90;55.20;;;;;;5096026;28;20205;-80
2021/09/23 09:37:44;;;;;;;25.13;19.43;;;17.70;58.30;;;;;;5097253;28;20199;-81
2021/09/23 09:40:13;;;;;;;24.03;20.30;;;17.70;59.80;;;;;;5097852;28;20173;-80
2021/09/23 09:42:44;;;;;;;27.87;21.33;;;17.60;61.30;;;;;;5096631;28;20167;-80
2021/09/23 09:45:26;;;;;;;25.67;20.17;;;17.70;62.80;;;;;;5096257;28;20199;-79
2021/09/23 09:47:54;;;;;;;27.37;19.07;;;17.80;58.80;;;;;;5097195;28;20641;-77
2021/09/23 09:50:26;;;;;;;22.47;19.17;;;18.00;57.10;;;;;;5096911;28;20247;-77
2021/09/23 09:53:03;;;;;;;23.73;18.90;;;18.10;54.50;;;;;;5097256;28;20336;-76
2021/09/23 09:55:32;;;;;;;25.00;19.13;;;18.10;54.20;;;;;;5098866;28;20211;-79
2021/09/23 09:58:00;;;;;;;22.10;18.57;;;18.20;51.90;;;;;;5096994;28;20179;-78
2021/09/23 10:00:27;;;;;;;20.87;17.57;;;18.20;52.10;;;;;;5098922;28;20178;-78
2021/09/23 10:02:54;;;;;;;25.10;18.80;;;18.20;51.50;;;;;;5099135;28;20522;-79
2021/09/23 10:05:21;;;;;;;23.10;17.67;;;18.40;47.10;;;;;;5098001;28;20190;-80
2021/09/23 10:07:49;;;;;;;25.70;18.90;;;18.30;45.90;;;;;;5097749;28;20188;-80
2021/09/23 10:10:17;;;;;;;23.07;18.77;;;18.40;46.30;;;;;;5097251;28;20218;-80
2021/09/23 10:12:45;;;;;;;23.57;18.83;;;18.40;45.40;;;;;;5096170;28;20187;-80
2021/09/23 10:15:17;;;;;;;26.87;19.53;;;18.30;50.50;;;;;;5077523;28;20203;-79
2021/09/23 10:17:48;;;;;;;21.90;17.30;;;18.30;50.40;;;;;;5096615;28;20518;-80
2021/09/23 10:20:16;;;;;;;20.17;17.43;;;18.50;43.70;;;;;;5096834;28;20176;-82
2021/09/23 10:22:42;;;;;;;21.60;19.00;;;18.40;49.60;;;;;;5078172;28;20180;-78
2021/09/23 10:25:13;;;;;;;21.90;16.30;;;18.50;48.90;;;;;;5097134;28;20179;-76
2021/09/23 10:27:58;;;;;;;21.73;15.83;;;18.60;44.90;;;;;;5096829;28;20167;-76
2021/09/23 10:30:31;;;;;;;20.80;15.43;;;18.80;32.70;;;;;;5077019;28;20176;-77
2021/09/23 10:32:58;;;;;;;21.20;15.90;;;19.00;22.20;;;;;;5097378;28;20168;-79
2021/09/23 10:35:24;;;;;;;16.97;15.20;;;19.00;17.80;;;;;;5097198;28;20732;-79
2021/09/23 10:38:05;;;;;;;18.77;15.07;;;19.10;12.10;;;;;;5078750;28;20176;-79
2021/09/23 10:40:33;;;;;;;18.93;15.30;;;19.30;6.80;;;;;;5096962;28;20174;-80
2021/09/23 10:43:03;;;;;;;19.70;15.37;;;19.30;5.00;;;;;;5096083;28;20182;-81
2021/09/23 10:45:33;;;;;;;19.23;16.33;;;19.40;1.00;;;;;;5095693;28;20168;-80
2021/09/23 10:48:00;;;;;;;19.90;15.87;;;19.20;2.90;;;;;;5096740;28;20188;-80
2021/09/23 10:50:29;;;;;;;20.47;16.53;;;19.30;5.20;;;;;;5078549;28;20172;-81
2021/09/23 10:52:57;;;;;;;19.53;15.37;;;19.50;1.60;;;;;;5097096;28;20162;-76
2021/09/23 10:55:26;;;;;;;18.07;13.73;;;19.60;1.00;;;;;;5077602;28;20773;-77
2021/09/23 10:57:54;;;;;;;16.57;14.40;;;19.70;1.00;;;;;;5095146;28;20164;-78
2021/09/23 11:00:28;;;;;;;20.93;13.90;;;19.80;1.00;;;;;;5095653;28;20160;-81
2021/09/23 11:02:55;;;;;;;13.87;11.83;;;19.90;1.00;;;;;;5060565;28;20175;-77
2021/09/23 11:05:22;;;;;;;17.43;13.43;;;19.80;1.00;;;;;;5095457;28;20188;-81
2021/09/23 11:07:52;;;;;;;13.60;11.50;;;19.70;1.00;;;;;;5095580;28;20547;-80
2021/09/23 11:10:19;;;;;;;16.63;13.07;;;19.80;1.00;;;;;;5095295;28;20523;-80
2021/09/23 11:12:49;;;;;;;15.23;12.27;;;19.90;1.00;;;;;;5096117;28;20178;-80
2021/09/23 11:15:18;;;;;;;15.43;11.90;;;19.80;1.00;;;;;;5095863;28;20247;-80
2021/09/23 11:17:45;;;;;;;13.87;11.07;;;19.90;1.00;;;;;;5096082;28;20658;-80
2021/09/23 11:20:19;;;;;;;16.60;10.87;;;20.10;1.00;;;;;;5095230;28;20206;-79
2021/09/23 11:22:55;;;;;;;15.77;10.80;;;20.20;1.00;;;;;;5096080;28;20176;-77
2021/09/23 11:25:24;;;;;;;12.67;10.23;;;20.40;1.00;;;;;;5076704;28;20556;-81
2021/09/23 11:27:53;;;;;;;14.03;10.23;;;20.40;1.00;;;;;;5096697;28;20198;-81
2021/09/23 11:30:21;;;;;;;16.63;10.23;;;20.10;1.00;;;;;;5096079;28;20258;-80
2021/09/23 11:32:58;;;;;;;15.33;9.07;;;20.00;1.00;;;;;;5095572;28;20662;-80
2021/09/23 11:35:27;;;;;;;12.33;8.90;;;20.10;1.00;;;;;;5096038;28;20211;-79
2021/09/23 11:37:53;;;;;;;11.30;8.63;;;20.10;1.00;;;;;;5111291;28;20176;-81
2021/09/23 11:40:24;;;;;;;14.47;9.07;;;20.20;1.00;;;;;;5106232;28;20179;-76
2021/09/23 11:42:50;;;;;;;14.00;9.10;;;20.20;1.00;;;;;;5094027;28;20193;-77
2021/09/23 11:45:20;;;;;;;10.70;8.53;;;20.20;1.00;;;;;;5094298;28;20167;-76
2021/09/23 11:47:49;;;;;;;11.50;9.60;;;20.00;1.00;;;;;;5076471;28;20599;-80
2021/09/23 11:50:35;;;;;;;12.27;9.70;;;19.80;1.00;;;;;;5094103;28;20596;-80
2021/09/23 11:53:04;;;;;;;11.27;8.47;;;19.70;1.00;;;;;;5095012;28;20209;-81
2021/09/23 11:55:34;;;;;;;12.50;8.43;;;19.50;1.00;;;;;;5079130;28;20196;-82
2021/09/23 11:58:03;;;;;;;12.67;8.53;;;19.50;1.00;;;;;;5091201;28;20188;-79
2021/09/23 12:00:38;;;;;;;11.70;8.60;;;19.40;1.00;;;;;;5109130;28;20200;-78
2021/09/23 12:03:04;;;;;;;14.93;9.23;;;19.40;1.00;;;;;;5081948;28;20242;-78
2021/09/23 12:05:31;;;;;;;12.40;9.20;;;19.40;1.00;;;;;;5095938;28;20198;-79
2021/09/23 12:08:11;;;;;;;11.03;9.20;;;19.50;1.00;;;;;;5095837;28;20198;-79
2021/09/23 12:10:45;;;;;;;12.13;9.63;;;19.50;1.00;;;;;;5094944;28;20171;-80
2021/09/23 12:13:13;;;;;;;11.27;8.60;;;19.60;1.00;;;;;;5093842;28;20210;-79
2021/09/23 12:15:39;;;;;;;12.27;9.37;;;19.70;1.00;;;;;;5094220;28;20191;-78
2021/09/23 12:18:09;;;;;;;12.10;9.33;;;20.00;1.00;;;;;;5094153;28;20160;-76
2021/09/23 12:20:40;;;;;;;11.90;9.30;;;19.90;1.00;;;;;;5094269;28;20495;-80
2021/09/23 12:23:21;;;;;;;9.57;8.57;;;19.70;1.00;;;;;;5093706;28;20160;-78
2021/09/23 12:26:08;;;;;;;9.40;8.20;;;19.80;1.00;;;;;;5076031;28;20179;-81
2021/09/23 12:28:38;;;;;;;11.67;8.57;;;19.80;1.00;;;;;;5094942;28;20175;-79
2021/09/23 12:31:07;;;;;;;10.97;8.63;;;19.70;1.00;;;;;;5095116;28;20163;-78
2021/09/23 12:33:33;;;;;;;10.67;8.27;;;19.70;1.00;;;;;;5095519;28;20274;-79
2021/09/23 12:36:13;;;;;;;21.17;9.50;;;19.70;1.00;;;;;;5108420;28;20245;-79
2021/09/23 12:38:40;;;;;;;9.90;8.63;;;19.80;1.00;;;;;;5113730;28;20168;-77